Terminal Aerodrome Forecast
Issued by NWS

Home | Current Version | Previous Version | Text Only | Print | Product List | Glossary On
Versions: 1 2 3 4 5 6 7 8 9 10 11 12 13 14 15 16 17 18 19 20 21 22 23 24 25 26 27 28 29
946
FTUS41 KOKX 240602 RRA
TAFGON
TAF
KGON 240602Z 2406/2506 10011G18KT P6SM SCT050 OVC080
     FM241000 09015G23KT 4SM SHRA OVC050
     FM241200 09017G25KT 3SM SHRA OVC015
     FM241300 09017G27KT 2SM SHRA OVC008
     FM241600 07015G24KT P6SM VCSH OVC008 PROB30 2416/2421 2SM -SHRA
      OVC006
     FM242100 02012G22KT P6SM VCSH OVC010=

USA.gov is the U.S. government's official web portal to all federal, state and local government web resources and services.